Cape Hatteras Natl Seashore, North Carolina
Current Conditions -  °F | °C
As of 7:51 PM on Wednesday 22 Oct 2014 (Local Time) from KHSE Reporting Station
Overcast Overcast  
Wind Chill: 58°   Ceiling: 3600
Heat Index: 58°   Visibility: 10mi
Dew Point: 51°   Wind: 21mph
Humidity: 78%   Direction: 310°NW
Pressure: 29.88"   Gusts: 32mph
Location:  35.22°N, 75.68°W
Report Text: KHSE 222351Z AUTO 31018G28KT 10SM SCT025 OVC036 14/11 A2988 RMK AO2 PK WND 32028/2345 SLP116 T01440106 10150 20139 53007 TSNO
Loading
Personal Weather Stations






























Interactive Weather Map New forecast layout! Learn more

10-Day Weather Forecast

Advertisements
Track Severe Weather on mobile